logo
App data

Brain Spa

Welcome to the Brain Spa, a place where you can learn to maximize your memory, improve your perception abilities, power up your language aptitude, and fine tune your logical thinking skills! 8 different mini-games to play emphasizing four distinct categories of mental abilities: Memory, Perception, Logic, Language.
Store | Hub | SteamDB
Developer: Ubisoft Publisher: Ubisoft
Genre: Casual
Languages: English
Tags: Casual (20)
Category: Single-player, Multi-player, Co-op
Release date: Oct 10, 2008
Price: $9.99
Owners: 0 .. 20,000
Followers: 32
Peak concurrent players yesterday: 1

Steam Spy is still in beta, so expect major bugs.

Owners data:

Access restricted.

This feature is only available to users with special access rights. Sorry.

If you want to proceed, you need to register or log in first and then back Steam Spy on Patreon. Look for Indie or Pro pledge.

Don't forget to use the same email as on Steam Spy!

Audience in 2 weeks:

Access restricted.

This feature is only available to users with special access rights. Sorry.

If you want to proceed, you need to register or log in first and then back Steam Spy on Patreon. Look for Indie or Pro pledge.

Don't forget to use the same email as on Steam Spy!

Peak daily concurrent players:

CCU data courtesy of SteamDB. Used with permission.

Hourly concurrent players:

YouTube:

The views data is based on top 50 videos uploaded last week. Actual number of views might be more than the number shown.

The displayed number of videos uploaded yesterday is limited to 50, so if there were more videos uploaded, the number will still show 50.

If the game has commonly used word as its name (like "FEAR" or "Volume") its number of Youtube views might be wrong.

Games similar to this one:

# Game Release date
Price
Score rank
(Userscore / Metascore)
Owners
Players
Playtime (Median)
1 Puppy Dog: Jigsaw Puzzles Jul 19, 2016 $1.99100% (100%)20,000 .. 50,0000.42%02:43 (00:54)
2 Legends of Atlantis: Exodus Apr 9, 2012 $6.99N/A (N/A)0 .. 20,0000%00:00 (00:00)
3 Peggle Nights Oct 15, 2008 $4.9990% (94%/76%)100,000 .. 200,0000%00:00 (00:00)
4 Tradewinds Classics Jul 17, 2009 $4.99N/A (N/A)0 .. 20,0000%00:00 (00:00)
5 Farm Frenzy 2 Aug 27, 2008 $4.99N/A (N/A)0 .. 20,0000%00:00 (00:00)
6 Chuzzle Deluxe Aug 30, 2006 $4.9987% (93%)50,000 .. 100,0000%00:00 (00:00)
7 Princess Maker 2 Refine Sep 28, 2016 $19.9984% (92%)20,000 .. 50,0000%00:00 (00:00)
8 YOU DON’T KNOW JACK Feb 8, 2011 N/A84% (92%/71%)0 .. 20,0000%00:00 (00:00)
9 Gnomes Garden 2 May 18, 2016 $4.99N/A (N/A)20,000 .. 50,0000%00:00 (00:00)
10 Hidden Object Bundle 4 in 1 Jun 1, 2014 $3.1184% (92%)20,000 .. 50,0000%00:00 (00:00)
11 Zuma Deluxe Aug 30, 2006 $4.9984% (92%)50,000 .. 100,0000%00:00 (00:00)
12 Kitty Cat: Jigsaw Puzzles Jul 18, 2016 $1.9980% (91%)50,000 .. 100,0000.82%02:21 (01:34)
13 Gemini Lost Sep 24, 2009 $6.99N/A (N/A)0 .. 20,0000%00:00 (00:00)
14 Bejeweled 2 Deluxe Aug 30, 2006 $4.9977% (90%)50,000 .. 100,0001.69%00:01 (00:00)
15 Alice's Patchwork Mar 3, 2016 $4.9974% (89%)20,000 .. 50,0000%00:00 (00:00)
16 Stikbold! A Dodgeball Adventure Apr 1, 2016 $9.9974% (89%)50,000 .. 100,0000%00:00 (00:00)
17 Putt-Putt and Fatty Bear's Activity Pack Mar 25, 1994 $4.99N/A (N/A)20,000 .. 50,0000%00:00 (00:00)
18 Mr Nibbles Forever Apr 29, 2016 $0.99N/A (N/A)0 .. 20,0000%00:00 (00:00)
19 Luxor 3 Nov 13, 2007 $9.9971% (88%)20,000 .. 50,0000%00:00 (00:00)
20 Shufflepuck Cantina Deluxe Dec 6, 2013 $9.9971% (88%)100,000 .. 200,0000%00:00 (00:00)
21 Puzzler World May 28, 2010 $4.9971% (88%)50,000 .. 100,0000%00:00 (00:00)
22 Big Thinkers 1st Grade Aug 18, 2015 $6.99N/A (N/A)0 .. 20,0000%00:00 (00:00)
23 Hidden Object 6-in-1 bundle Mar 16, 2016 $4.6765% (86%)20,000 .. 50,0000%00:00 (00:00)
24 Space Codex May 17, 2016 $0.9965% (86%)100,000 .. 200,0000.29%04:04 (01:21)
25 Among the Heavens Nov 6, 2015 $2.9963% (85%)50,000 .. 100,0000%00:00 (00:00)
26 Pretty Girls Panic! Dec 19, 2016 $1.9963% (85%)20,000 .. 50,0000%00:00 (00:00)
27 Brink of Consciousness: The Lonely Hearts Murders Nov 24, 2014 $9.9963% (85%)0 .. 20,0000%00:00 (00:00)
28 Plant Tycoon Sep 27, 2007 $9.9960% (84%)0 .. 20,0000%00:00 (00:00)
29 Baseball Mogul 2015 Apr 3, 2014 $4.99N/A (N/A)20,000 .. 50,0000%00:00 (00:00)
30 Little Racers STREET Feb 6, 2014 $5.9960% (84%/62%)100,000 .. 200,0001.82%02:43 (03:02)
31 BasketBelle Dec 9, 2014 $4.9958% (83%)0 .. 20,0000%00:00 (00:00)
32 My Riding Stables: Life with Horses Mar 27, 2014 $14.9958% (83%)0 .. 20,0000%00:00 (00:00)
33 Urban Trial Freestyle Sep 18, 2013 $6.9955% (82%/58%)100,000 .. 200,0000.4%00:14 (00:04)
34 Venice Deluxe Jun 26, 2007 $4.99N/A (N/A)20,000 .. 50,0006.25%00:14 (00:04)
35 Crash Dive Jul 6, 2015 $6.9953% (81%)0 .. 20,0000%00:00 (00:00)
36 Combat Wings: Battle of Britain Oct 14, 2009 $4.9953% (81%)100,000 .. 200,0000%00:00 (00:00)
37 Mystery P.I. - Lost in Los Angeles Jul 27, 2009 $4.99N/A (N/A)20,000 .. 50,0000%00:00 (00:00)
38 Gnomes Garden Dec 18, 2015 $4.9951% (80%)20,000 .. 50,0000.33%00:13 (00:04)
39 Radial-G : Racing Revolved Mar 28, 2016 $9.9951% (80%)0 .. 20,0000%00:00 (00:00)
40 Virtual Villagers - The Secret City May 28, 2008 $9.99N/A (N/A)0 .. 20,0000%00:00 (00:00)
41 Mahjong Destiny Jun 17, 2016 $2.9951% (80%)50,000 .. 100,0001.19%01:46 (01:45)
42 Crash Time 3 Nov 25, 2009 $5.9951% (80%)20,000 .. 50,0000%00:00 (00:00)
43 Rotastic Oct 11, 2012 $9.99N/A (N/A)0 .. 20,0000%00:00 (00:00)
44 7 Wonders: Treasures of Seven Nov 14, 2008 $9.9951% (80%)20,000 .. 50,0001.14%32:52 (21:54)
45 The Wizard's Pen Sep 16, 2008 $4.99N/A (N/A)20,000 .. 50,0000%00:00 (00:00)
46 Typer Shark! Deluxe Aug 30, 2006 $4.9949% (79%)20,000 .. 50,0000%00:00 (00:00)
47 Qvadriga Jun 13, 2014 $19.9947% (78%/72%)20,000 .. 50,0000%00:00 (00:00)
48 Sea Legends: Phantasmal Light Collector's Edition Jan 15, 2012 $4.9947% (78%)20,000 .. 50,0000%00:00 (00:00)
49 Virtual Villagers: The Lost Children Feb 14, 2007 $9.99N/A (N/A)0 .. 20,00014.29%07:41 (02:33)
50 Elementary My Dear Majesty! Nov 15, 2013 $0.9943% (76%)20,000 .. 50,0000%00:00 (00:00)
51 Hotel Dash Suite Success Dec 24, 2009 $6.99N/A (N/A)0 .. 20,0000%00:00 (00:00)
52 Vehicle Simulator Mar 27, 2009 $2041% (75%)0 .. 20,0000%00:00 (00:00)
53 Toilet Tycoon Mar 1, 2000 $4.9941% (75%)0 .. 20,0000%00:00 (00:00)
54 Pretty Girls Mahjong Solitaire Aug 24, 2015 $4.9941% (75%)20,000 .. 50,0001.44%07:22 (04:50)
55 Zombie Solitaire Nov 15, 2013 $8.9939% (74%)0 .. 20,0000%00:00 (00:00)
56 Amazing Adventures Around the World Sep 17, 2008 $4.99N/A (N/A)20,000 .. 50,0000%00:00 (00:00)
57 Home Design 3D Jan 30, 2015 $9.9939% (74%)20,000 .. 50,0000.76%02:01 (00:40)
58 Evolution Planet: Gold Edition Jul 7, 2016 $4.99N/A (N/A)0 .. 20,0000%00:00 (00:00)
59 Ski Region Simulator - Gold Edition Jan 16, 2013 $8.9937% (73%)20,000 .. 50,0000%00:00 (00:00)
60 Cooking Dash Aug 12, 2009 $9.99N/A (N/A)0 .. 20,0000%00:00 (00:00)
61 StuntMANIA Reloaded Nov 13, 2014 $4.9936% (72%)20,000 .. 50,0000%00:00 (00:00)
62 aerofly RC 7 Nov 6, 2014 $39.9934% (71%)0 .. 20,0000%00:00 (00:00)
63 Football Mogul 2014 Sep 4, 2013 $4.99N/A (N/A)20,000 .. 50,0000%00:00 (00:00)
64 Mystery P.I. - The Lottery Ticket Oct 16, 2007 $4.99N/A (N/A)20,000 .. 50,0000%00:00 (00:00)
65 Runaway Express Mystery Sep 23, 2014 $6.99N/A (N/A)0 .. 20,0000%00:00 (00:00)
66 Diner Mania Jun 25, 2015 $3.9931% (69%)0 .. 20,0001.05%00:04 (00:01)
67 MiniDrivers Aug 20, 2015 $5.9931% (69%)20,000 .. 50,0000%00:00 (00:00)
68 Polaris Sector Mar 22, 2016 $39.9929% (68%/76%)0 .. 20,0000%00:00 (00:00)
69 Chocolatier: Decadence by Design Aug 12, 2009 $9.9928% (67%)0 .. 20,0000%00:00 (00:00)
70 Mystery P.I. - The Vegas Heist Jun 4, 2008 $4.99N/A (N/A)20,000 .. 50,0000%00:00 (00:00)
71 PAC-MAN CHAMPIONSHIP EDITION 2 Sep 13, 2016 $12.9924% (64%)50,000 .. 100,0000%00:00 (00:00)
72 Pro Cycling Manager 2014 Jun 19, 2014 $9.9924% (64%)20,000 .. 50,0000%00:00 (00:00)
73 Luxor Jun 10, 2008 $9.99N/A (N/A)0 .. 20,0000%00:00 (00:00)
74 Jane Angel: Templar Mystery Dec 10, 2009 $4.99N/A (N/A)0 .. 20,0000%00:00 (00:00)
75 City Life 2008 Jul 18, 2008 $9.9922% (63%)20,000 .. 50,0000%00:00 (00:00)
76 Bridge It + Nov 18, 2013 $6.9922% (63%)20,000 .. 50,0000%00:00 (00:00)
77 Castle: Never Judge a Book by its Cover Jul 9, 2013 N/A22% (63%)20,000 .. 50,0000%00:00 (00:00)
78 Aerofly FS 1 Flight Simulator Oct 17, 2012 $19.9921% (62%)0 .. 20,0000%00:00 (00:00)
79 Air Conflicts: Secret Wars Sep 30, 2011 $5.9920% (61%/65%)50,000 .. 100,0000%00:00 (00:00)
80 DinerTown Tycoon Sep 30, 2009 $9.99N/A (N/A)0 .. 20,0000%00:00 (00:00)
81 Zooloretto Nov 1, 2011 $2.99N/A (N/A)0 .. 20,0000%00:00 (00:00)
82 Meridian: Age of Invention Jan 28, 2013 $1.4619% (60%)20,000 .. 50,0000%00:00 (00:00)
83 Cities in Motion 2 Apr 2, 2013 $19.9917% (58%/72%)500,000 .. 1,000,0000.32%01:13 (01:02)
84 Hacker Evolution: Untold Sep 14, 2010 $4.9916% (57%)200,000 .. 500,0000%00:00 (00:00)
85 Riding Star - Horse Championship! Mar 27, 2014 $9.99N/A (N/A)0 .. 20,0000%00:00 (00:00)
86 Kumoon : Ballistic Physics Puzzle Nov 10, 2015 $2.9914% (55%)0 .. 20,0000%00:00 (00:00)
87 Mystery P.I. - The New York Fortune Jan 14, 2009 $4.99N/A (N/A)20,000 .. 50,0000%00:00 (00:00)
88 Solitaire Christmas. Match 2 Cards Dec 24, 2015 $4.99N/A (N/A)20,000 .. 50,0000.41%01:51 (00:37)
89 Pacific Storm Allies May 25, 2007 $1.0313% (53%/60%)50,000 .. 100,0000%00:00 (00:00)
90 Speed Kills May 16, 2014 $9.9912% (52%)200,000 .. 500,0000.28%01:15 (00:49)
91 Luxor: Quest for the Afterlife Dec 15, 2008 $9.99N/A (N/A)20,000 .. 50,0000%00:00 (00:00)
92 Poker Pretty Girls Battle: Texas Hold'em Oct 21, 2015 $9.9912% (52%)20,000 .. 50,0000.96%00:01 (00:00)
93 Ludo Supremo Jun 8, 2016 $2.9911% (50%)20,000 .. 50,0000.85%02:36 (01:44)
94 Firefighters 2014 May 21, 2014 $19.9911% (50%)50,000 .. 100,0000%00:00 (00:00)
95 300 Dwarves Jun 17, 2013 $6.9910% (49%)0 .. 20,0000%00:00 (00:00)
96 EVEREST VR Aug 2, 2016 $14.999% (47%)0 .. 20,0000%00:00 (00:00)
97 Shannon Tweed's Attack Of The Groupies Apr 1, 2014 $4.99N/A (N/A)0 .. 20,0000%00:00 (00:00)
98 Lords of Football Apr 5, 2013 $14.999% (46%/52%)20,000 .. 50,0000%00:00 (00:00)
99 Transport Giant Jun 8, 2004 $3.998% (45%)20,000 .. 50,0000%00:00 (00:00)
100 Theme Park Studio Dec 2, 2016 $29.997% (43%)0 .. 20,0000%00:00 (00:00)
101 Ship Simulator: Maritime Search and Rescue Jul 1, 2014 $17.997% (42%)20,000 .. 50,00018.18%04:04 (02:39)
102 Luxor 2 Dec 8, 2005 $9.99N/A (N/A)20,000 .. 50,0000%00:00 (00:00)
103 Silent Hunter 5: Battle of the Atlantic Mar 2010 $9.996% (41%/62%)50,000 .. 100,0002.27%05:18 (01:46)
104 RECYCLE Sep 3, 2014 $9.995% (38%)20,000 .. 50,0000%00:00 (00:00)
105 Echelon Apr 15, 2001 $3.995% (38%/70%)20,000 .. 50,0000%00:00 (00:00)
106 Firefighters - The Simulation Aug 31, 2016 $14.99N/A (N/A)0 .. 20,0000%00:00 (00:00)
107 Diner Dash: Hometown Hero Aug 12, 2009 $9.994% (34%)0 .. 20,0000%00:00 (00:00)
108 Industry Empire Jul 30, 2014 $19.993% (31%)20,000 .. 50,0000%00:00 (00:00)
109 Tetris Ultimate Dec 10, 2015 $14.993% (29%)20,000 .. 50,0000%00:00 (00:00)
110 City Play May 19, 2016 $3.99N/A (N/A)0 .. 20,0000%00:00 (00:00)
111 The Terminal 2 Aug 8, 2014 $4.992% (25%)0 .. 20,0000%00:00 (00:00)
112 G-Ball May 28, 2014 $0.992% (20%)0 .. 20,0000%00:00 (00:00)
113 Airline Tycoon 2 Oct 24, 2011 $9.991% (17%/57%)100,000 .. 200,0000%00:00 (00:00)
114 The Flying Dutchman Sep 12, 2014 $4.991% (3%)0 .. 20,0000%00:00 (00:00)
115 Fantastic 4 In A Row 2 Aug 15, 2016 $1.99N/A (N/A)50,000 .. 100,0001.69%02:02 (02:07)
116 Bayla Bunny Jun 13, 2016 $2.99N/A (N/A)50,000 .. 100,0000.85%02:50 (01:53)
117 Dessert Storm Oct 23, 2016 $1.99N/A (N/A)20,000 .. 50,0000.9%01:23 (00:55)
118 Chainz 2: Relinked Jul 13, 2009 $9.99N/A (N/A)0 .. 20,0000%00:00 (00:00)
119 TriJinx: A Kristine Kross Mystery Dec 31, 2007 $6.99N/A (N/A)0 .. 20,0000%00:00 (00:00)
120 Bubble Blowout Oct 24, 2016 $1.99N/A (N/A)20,000 .. 50,0001.31%03:24 (03:24)
121 Barnyard Mahjong 3 Jul 29, 2016 $4.99N/A (N/A)50,000 .. 100,0000.82%02:20 (01:33)
122 Them - The Summoning May 16, 2014 $4.99N/A (N/A)0 .. 20,0000%00:00 (00:00)
123 Rush for gold: California Mar 9, 2016 $3.99N/A (N/A)20,000 .. 50,0000.49%02:52 (00:57)
124 The Hidden Dragon Jul 26, 2016 $4.99N/A (N/A)0 .. 20,0001.26%02:16 (02:15)
125 Discovery! A Seek and Find Adventure Jul 29, 2008 $9.99N/A (N/A)0 .. 20,0000%00:00 (00:00)
126 Tropical Fish Shop 2 Mar 9, 2016 $3.99N/A (N/A)0 .. 20,0000%00:00 (00:00)
127 Farm Frenzy 3 Sep 11, 2009 $9.99N/A (N/A)0 .. 20,0000%00:00 (00:00)
128 Nokori Mar 25, 2016 $1.99N/A (N/A)0 .. 20,0000%00:00 (00:00)

Tags over time:

Access restricted.

This feature is only available to users with special access rights. Sorry.

If you want to proceed, you need to register or log in first and then back Steam Spy on Patreon. Look for Indie or Pro pledge.

Don't forget to use the same email as on Steam Spy!

Owners of this game also own:

Access restricted.

This feature is only available to users with special access rights. Sorry.

If you want to proceed, you need to register or log in first and then back Steam Spy on Patreon. Look for Indie or Pro pledge.

Don't forget to use the same email as on Steam Spy!

Playtime distribution:

Access restricted.

This feature is only available to users with special access rights. Sorry.

If you want to proceed, you need to register or log in first and then back Steam Spy on Patreon. Look for Indie or Pro pledge.

Don't forget to use the same email as on Steam Spy!

Playtime (2 weeks):

Access restricted.

This feature is only available to users with special access rights. Sorry.

If you want to proceed, you need to register or log in first and then back Steam Spy on Patreon. Look for Indie or Pro pledge.

Don't forget to use the same email as on Steam Spy!

User reviews:

Login required.

Please register or log in to see this information.